Terminal Aerodrome Forecast
Issued by NWS Upton, NY

Home | Current Version | Previous Version | Text Only | Print | Product List | Glossary On
Versions: 1 2 3 4 5 6 7 8 9 10 11 12 13 14 15 16 17 18 19 20 21 22 23 24 25 26 27 28 29
638
FTUS41 KOKX 310223 AAC
TAFISP
TAF AMD
KISP 310223Z 3102/3124 22012KT P6SM SCT005 BKN035
     FM310500 20007KT 4SM BR OVC007
     FM310700 23004KT 1SM BR OVC007
     FM311200 35005KT 5SM BR FEW007 SCT035 BKN090
     FM311400 35005KT P6SM SCT120 SCT250
     FM311900 21010KT P6SM FEW050 SCT250=

USA.gov is the U.S. government's official web portal to all federal, state and local government web resources and services.